sensor_id;sensor_type;location;lat;lon;timestamp;temperature;humidity
7307;DHT22;3694;48.732;9.248;2023-01-13T00:00:17;8.70;98.10
7307;DHT22;3694;48.732;9.248;2023-01-13T00:02:43;8.70;98.10
7307;DHT22;3694;48.732;9.248;2023-01-13T00:05:08;8.80;98.20
7307;DHT22;3694;48.732;9.248;2023-01-13T00:07:34;8.80;98.20
7307;DHT22;3694;48.732;9.248;2023-01-13T00:10:00;8.80;98.10
7307;DHT22;3694;48.732;9.248;2023-01-13T00:12:25;8.90;98.10
7307;DHT22;3694;48.732;9.248;2023-01-13T00:14:51;9.00;98.10
7307;DHT22;3694;48.732;9.248;2023-01-13T00:17:16;9.00;98.10
7307;DHT22;3694;48.732;9.248;2023-01-13T00:19:41;9.00;98.20
7307;DHT22;3694;48.732;9.248;2023-01-13T00:22:07;8.90;98.20
7307;DHT22;3694;48.732;9.248;2023-01-13T00:24:32;8.90;98.20
7307;DHT22;3694;48.732;9.248;2023-01-13T00:26:58;8.80;98.30
7307;DHT22;3694;48.732;9.248;2023-01-13T00:29:23;8.80;98.30
7307;DHT22;3694;48.732;9.248;2023-01-13T00:31:49;8.80;98.50
7307;DHT22;3694;48.732;9.248;2023-01-13T00:34:15;8.80;98.30
7307;DHT22;3694;48.732;9.248;2023-01-13T00:36:40;8.80;98.40
7307;DHT22;3694;48.732;9.248;2023-01-13T00:39:06;8.80;98.30
7307;DHT22;3694;48.732;9.248;2023-01-13T00:41:31;8.80;98.30
7307;DHT22;3694;48.732;9.248;2023-01-13T00:44:17;8.80;98.30
7307;DHT22;3694;48.732;9.248;2023-01-13T00:46:42;8.80;98.30
7307;DHT22;3694;48.732;9.248;2023-01-13T00:49:08;8.80;98.40
7307;DHT22;3694;48.732;9.248;2023-01-13T00:51:34;8.80;98.30
7307;DHT22;3694;48.732;9.248;2023-01-13T00:53:59;8.80;98.30
7307;DHT22;3694;48.732;9.248;2023-01-13T00:56:24;8.80;98.20
7307;DHT22;3694;48.732;9.248;2023-01-13T00:58:50;8.80;98.30
7307;DHT22;3694;48.732;9.248;2023-01-13T01:01:21;8.80;98.20
7307;DHT22;3694;48.732;9.248;2023-01-13T01:03:51;8.80;98.30
7307;DHT22;3694;48.732;9.248;2023-01-13T01:06:22;8.90;98.20
7307;DHT22;3694;48.732;9.248;2023-01-13T01:08:49;8.90;98.20
7307;DHT22;3694;48.732;9.248;2023-01-13T01:11:17;8.90;98.20
7307;DHT22;3694;48.732;9.248;2023-01-13T01:13:44;8.90;98.20
7307;DHT22;3694;48.732;9.248;2023-01-13T01:16:14;9.00;98.10
7307;DHT22;3694;48.732;9.248;2023-01-13T01:18:42;9.00;98.00
7307;DHT22;3694;48.732;9.248;2023-01-13T01:21:08;9.10;98.00
7307;DHT22;3694;48.732;9.248;2023-01-13T01:23:35;9.10;98.00
7307;DHT22;3694;48.732;9.248;2023-01-13T01:26:02;9.10;98.00
7307;DHT22;3694;48.732;9.248;2023-01-13T01:28:29;9.20;98.00
7307;DHT22;3694;48.732;9.248;2023-01-13T01:30:54;9.20;98.00
7307;DHT22;3694;48.732;9.248;2023-01-13T01:33:21;9.20;97.90
7307;DHT22;3694;48.732;9.248;2023-01-13T01:35:46;9.30;97.90
7307;DHT22;3694;48.732;9.248;2023-01-13T01:38:12;9.30;97.90
7307;DHT22;3694;48.732;9.248;2023-01-13T01:40:37;9.30;97.90
7307;DHT22;3694;48.732;9.248;2023-01-13T01:43:15;9.30;97.90
7307;DHT22;3694;48.732;9.248;2023-01-13T01:45:59;9.20;98.00
7307;DHT22;3694;48.732;9.248;2023-01-13T01:48:31;9.20;98.00
7307;DHT22;3694;48.732;9.248;2023-01-13T01:50:58;9.20;98.00
7307;DHT22;3694;48.732;9.248;2023-01-13T01:53:25;9.20;98.00
7307;DHT22;3694;48.732;9.248;2023-01-13T01:55:52;9.20;98.00
7307;DHT22;3694;48.732;9.248;2023-01-13T01:58:28;9.20;98.10
7307;DHT22;3694;48.732;9.248;2023-01-13T02:00:53;9.20;98.30
7307;DHT22;3694;48.732;9.248;2023-01-13T02:03:19;9.20;98.30
7307;DHT22;3694;48.732;9.248;2023-01-13T02:05:45;9.10;98.30
7307;DHT22;3694;48.732;9.248;2023-01-13T02:08:12;9.10;98.20
7307;DHT22;3694;48.732;9.248;2023-01-13T02:10:39;9.10;98.20
7307;DHT22;3694;48.732;9.248;2023-01-13T02:13:08;9.20;98.20
7307;DHT22;3694;48.732;9.248;2023-01-13T02:15:56;9.10;98.20
7307;DHT22;3694;48.732;9.248;2023-01-13T02:29:31;9.20;98.20
7307;DHT22;3694;48.732;9.248;2023-01-13T02:32:29;9.20;98.20
7307;DHT22;3694;48.732;9.248;2023-01-13T02:35:20;9.20;98.20
7307;DHT22;3694;48.732;9.248;2023-01-13T02:37:47;9.10;98.20
7307;DHT22;3694;48.732;9.248;2023-01-13T02:40:24;9.10;98.30
7307;DHT22;3694;48.732;9.248;2023-01-13T02:45:59;9.00;98.40
7307;DHT22;3694;48.732;9.248;2023-01-13T02:48:28;9.00;98.40
7307;DHT22;3694;48.732;9.248;2023-01-13T02:51:01;9.00;98.30
7307;DHT22;3694;48.732;9.248;2023-01-13T02:53:33;9.00;98.30
7307;DHT22;3694;48.732;9.248;2023-01-13T02:56:02;9.00;98.30
7307;DHT22;3694;48.732;9.248;2023-01-13T02:58:30;9.00;98.40
7307;DHT22;3694;48.732;9.248;2023-01-13T03:00:57;9.00;98.30
7307;DHT22;3694;48.732;9.248;2023-01-13T03:03:23;9.00;98.50
7307;DHT22;3694;48.732;9.248;2023-01-13T03:05:51;9.00;98.40
7307;DHT22;3694;48.732;9.248;2023-01-13T03:08:32;9.10;98.50
7307;DHT22;3694;48.732;9.248;2023-01-13T03:11:16;9.00;98.50
7307;DHT22;3694;48.732;9.248;2023-01-13T03:13:58;9.00;98.40
7307;DHT22;3694;48.732;9.248;2023-01-13T03:16:35;9.10;98.40
7307;DHT22;3694;48.732;9.248;2023-01-13T03:19:25;9.10;98.50
7307;DHT22;3694;48.732;9.248;2023-01-13T03:27:24;9.00;98.60
7307;DHT22;3694;48.732;9.248;2023-01-13T03:30:08;9.00;98.60
7307;DHT22;3694;48.732;9.248;2023-01-13T03:32:39;9.00;98.60
7307;DHT22;3694;48.732;9.248;2023-01-13T03:35:22;9.00;98.60
7307;DHT22;3694;48.732;9.248;2023-01-13T03:37:55;9.00;98.60
7307;DHT22;3694;48.732;9.248;2023-01-13T03:40:27;9.00;98.70
7307;DHT22;3694;48.732;9.248;2023-01-13T03:42:59;9.00;98.80
7307;DHT22;3694;48.732;9.248;2023-01-13T03:45:46;8.90;98.70
7307;DHT22;3694;48.732;9.248;2023-01-13T03:48:17;8.90;98.90
7307;DHT22;3694;48.732;9.248;2023-01-13T03:50:49;8.90;99.00
7307;DHT22;3694;48.732;9.248;2023-01-13T03:53:38;8.90;99.00
7307;DHT22;3694;48.732;9.248;2023-01-13T03:56:11;8.90;99.10
7307;DHT22;3694;48.732;9.248;2023-01-13T03:58:43;8.80;99.10
7307;DHT22;3694;48.732;9.248;2023-01-13T04:01:34;8.80;99.20
7307;DHT22;3694;48.732;9.248;2023-01-13T04:04:05;8.80;99.30
7307;DHT22;3694;48.732;9.248;2023-01-13T04:06:41;8.70;99.30
7307;DHT22;3694;48.732;9.248;2023-01-13T04:12:10;8.70;99.30
7307;DHT22;3694;48.732;9.248;2023-01-13T04:14:37;8.70;99.30
7307;DHT22;3694;48.732;9.248;2023-01-13T04:17:03;8.70;99.30
7307;DHT22;3694;48.732;9.248;2023-01-13T04:19:29;8.70;99.20
7307;DHT22;3694;48.732;9.248;2023-01-13T04:21:55;9.00;99.30
7307;DHT22;3694;48.732;9.248;2023-01-13T04:24:21;8.70;99.30
7307;DHT22;3694;48.732;9.248;2023-01-13T04:26:46;8.60;99.30
7307;DHT22;3694;48.732;9.248;2023-01-13T04:29:12;8.70;99.40
7307;DHT22;3694;48.732;9.248;2023-01-13T04:31:37;8.70;99.30
7307;DHT22;3694;48.732;9.248;2023-01-13T04:34:03;8.70;99.30
7307;DHT22;3694;48.732;9.248;2023-01-13T04:36:28;8.70;99.30
7307;DHT22;3694;48.732;9.248;2023-01-13T04:38:54;8.70;99.30
7307;DHT22;3694;48.732;9.248;2023-01-13T04:41:19;8.80;99.10
7307;DHT22;3694;48.732;9.248;2023-01-13T04:43:45;8.90;99.10
7307;DHT22;3694;48.732;9.248;2023-01-13T04:46:11;9.00;99.00
7307;DHT22;3694;48.732;9.248;2023-01-13T04:48:36;9.00;99.00
7307;DHT22;3694;48.732;9.248;2023-01-13T04:51:02;9.00;99.00
7307;DHT22;3694;48.732;9.248;2023-01-13T04:53:27;9.00;99.00
7307;DHT22;3694;48.732;9.248;2023-01-13T04:55:53;9.00;99.00
7307;DHT22;3694;48.732;9.248;2023-01-13T04:58:19;9.00;99.00
7307;DHT22;3694;48.732;9.248;2023-01-13T05:00:45;9.00;99.00
7307;DHT22;3694;48.732;9.248;2023-01-13T05:03:11;9.00;99.00
7307;DHT22;3694;48.732;9.248;2023-01-13T05:05:36;9.10;98.90
7307;DHT22;3694;48.732;9.248;2023-01-13T05:08:03;9.10;98.80
7307;DHT22;3694;48.732;9.248;2023-01-13T05:10:28;9.20;98.90
7307;DHT22;3694;48.732;9.248;2023-01-13T05:12:54;9.10;98.80
7307;DHT22;3694;48.732;9.248;2023-01-13T05:15:40;9.10;98.80
7307;DHT22;3694;48.732;9.248;2023-01-13T05:18:25;9.20;98.80
7307;DHT22;3694;48.732;9.248;2023-01-13T05:20:51;9.20;98.90
7307;DHT22;3694;48.732;9.248;2023-01-13T05:23:16;9.20;98.80
7307;DHT22;3694;48.732;9.248;2023-01-13T05:26:01;9.10;98.80
7307;DHT22;3694;48.732;9.248;2023-01-13T05:28:31;9.20;98.80
7307;DHT22;3694;48.732;9.248;2023-01-13T05:30:56;9.10;98.80
7307;DHT22;3694;48.732;9.248;2023-01-13T05:33:22;9.10;98.80
7307;DHT22;3694;48.732;9.248;2023-01-13T05:35:48;9.10;98.70
7307;DHT22;3694;48.732;9.248;2023-01-13T05:38:14;9.20;98.60
7307;DHT22;3694;48.732;9.248;2023-01-13T05:40:40;9.30;98.70
7307;DHT22;3694;48.732;9.248;2023-01-13T05:43:25;9.20;98.70
7307;DHT22;3694;48.732;9.248;2023-01-13T05:45:59;9.30;98.70
7307;DHT22;3694;48.732;9.248;2023-01-13T05:48:27;9.20;98.60
7307;DHT22;3694;48.732;9.248;2023-01-13T05:50:53;9.20;98.60
7307;DHT22;3694;48.732;9.248;2023-01-13T05:53:20;9.20;98.70
7307;DHT22;3694;48.732;9.248;2023-01-13T05:55:45;9.20;98.80
7307;DHT22;3694;48.732;9.248;2023-01-13T05:58:13;9.20;98.70
7307;DHT22;3694;48.732;9.248;2023-01-13T06:00:38;9.30;98.70
7307;DHT22;3694;48.732;9.248;2023-01-13T06:03:04;9.30;98.60
7307;DHT22;3694;48.732;9.248;2023-01-13T06:05:30;9.30;98.50
7307;DHT22;3694;48.732;9.248;2023-01-13T06:07:57;9.10;98.60
7307;DHT22;3694;48.732;9.248;2023-01-13T06:10:24;9.20;98.60
7307;DHT22;3694;48.732;9.248;2023-01-13T06:12:50;9.20;98.70
7307;DHT22;3694;48.732;9.248;2023-01-13T06:15:15;9.20;98.80
7307;DHT22;3694;48.732;9.248;2023-01-13T06:17:41;9.20;98.70
7307;DHT22;3694;48.732;9.248;2023-01-13T06:20:07;9.10;98.70
7307;DHT22;3694;48.732;9.248;2023-01-13T06:22:37;9.10;98.70
7307;DHT22;3694;48.732;9.248;2023-01-13T06:25:08;9.10;98.90
7307;DHT22;3694;48.732;9.248;2023-01-13T06:27:35;9.10;98.90
7307;DHT22;3694;48.732;9.248;2023-01-13T06:30:02;9.20;98.80
7307;DHT22;3694;48.732;9.248;2023-01-13T06:32:32;9.20;98.80
7307;DHT22;3694;48.732;9.248;2023-01-13T06:35:03;9.10;98.80
7307;DHT22;3694;48.732;9.248;2023-01-13T06:37:32;9.10;98.90
7307;DHT22;3694;48.732;9.248;2023-01-13T06:40:00;9.20;98.80
7307;DHT22;3694;48.732;9.248;2023-01-13T06:42:28;9.20;98.90
7307;DHT22;3694;48.732;9.248;2023-01-13T06:45:13;9.20;98.80
7307;DHT22;3694;48.732;9.248;2023-01-13T06:47:39;9.20;98.80
7307;DHT22;3694;48.732;9.248;2023-01-13T06:50:05;9.20;98.90
7307;DHT22;3694;48.732;9.248;2023-01-13T06:52:31;9.20;98.90
7307;DHT22;3694;48.732;9.248;2023-01-13T06:54:57;9.20;98.90
7307;DHT22;3694;48.732;9.248;2023-01-13T06:57:23;9.20;98.90
7307;DHT22;3694;48.732;9.248;2023-01-13T06:59:49;9.20;98.90
7307;DHT22;3694;48.732;9.248;2023-01-13T07:02:14;9.20;99.20
7307;DHT22;3694;48.732;9.248;2023-01-13T07:04:40;9.10;99.10
7307;DHT22;3694;48.732;9.248;2023-01-13T07:07:05;9.00;99.20
7307;DHT22;3694;48.732;9.248;2023-01-13T07:09:32;9.00;99.20
7307;DHT22;3694;48.732;9.248;2023-01-13T07:11:58;9.00;99.10
7307;DHT22;3694;48.732;9.248;2023-01-13T07:14:23;9.00;99.10
7307;DHT22;3694;48.732;9.248;2023-01-13T07:17:07;9.00;99.10
7307;DHT22;3694;48.732;9.248;2023-01-13T07:19:33;9.10;99.10
7307;DHT22;3694;48.732;9.248;2023-01-13T07:21:58;9.10;99.20
7307;DHT22;3694;48.732;9.248;2023-01-13T07:24:24;9.10;99.10
7307;DHT22;3694;48.732;9.248;2023-01-13T07:26:50;9.10;99.20
7307;DHT22;3694;48.732;9.248;2023-01-13T07:29:17;9.10;99.30
7307;DHT22;3694;48.732;9.248;2023-01-13T07:31:42;9.10;99.20
7307;DHT22;3694;48.732;9.248;2023-01-13T07:34:08;9.00;99.20
7307;DHT22;3694;48.732;9.248;2023-01-13T07:36:34;9.00;99.20
7307;DHT22;3694;48.732;9.248;2023-01-13T07:38:59;8.90;99.40
7307;DHT22;3694;48.732;9.248;2023-01-13T07:41:25;8.90;99.50
7307;DHT22;3694;48.732;9.248;2023-01-13T07:44:09;8.90;99.60
7307;DHT22;3694;48.732;9.248;2023-01-13T07:46:36;8.90;99.50
7307;DHT22;3694;48.732;9.248;2023-01-13T07:49:03;9.00;99.50
7307;DHT22;3694;48.732;9.248;2023-01-13T07:51:28;9.00;99.50
7307;DHT22;3694;48.732;9.248;2023-01-13T07:53:54;9.10;99.40
7307;DHT22;3694;48.732;9.248;2023-01-13T07:56:20;9.00;99.40
7307;DHT22;3694;48.732;9.248;2023-01-13T07:58:45;9.00;99.40
7307;DHT22;3694;48.732;9.248;2023-01-13T08:01:15;9.00;99.40
7307;DHT22;3694;48.732;9.248;2023-01-13T08:03:41;8.90;99.50
7307;DHT22;3694;48.732;9.248;2023-01-13T08:06:08;8.90;99.60
7307;DHT22;3694;48.732;9.248;2023-01-13T08:08:34;8.80;99.70
7307;DHT22;3694;48.732;9.248;2023-01-13T08:11:01;8.90;99.70
7307;DHT22;3694;48.732;9.248;2023-01-13T08:13:26;9.00;99.60
7307;DHT22;3694;48.732;9.248;2023-01-13T08:15:59;9.10;99.60
7307;DHT22;3694;48.732;9.248;2023-01-13T08:18:25;9.10;99.60
7307;DHT22;3694;48.732;9.248;2023-01-13T08:20:51;9.20;99.50
7307;DHT22;3694;48.732;9.248;2023-01-13T08:23:18;9.20;99.50
7307;DHT22;3694;48.732;9.248;2023-01-13T08:25:44;9.30;99.60
7307;DHT22;3694;48.732;9.248;2023-01-13T08:28:11;9.40;99.70
7307;DHT22;3694;48.732;9.248;2023-01-13T08:30:37;9.50;99.90
7307;DHT22;3694;48.732;9.248;2023-01-13T08:33:06;9.60;99.90
7307;DHT22;3694;48.732;9.248;2023-01-13T08:35:32;9.80;99.80
7307;DHT22;3694;48.732;9.248;2023-01-13T08:37:59;9.80;99.60
7307;DHT22;3694;48.732;9.248;2023-01-13T08:40:25;9.70;99.80
7307;DHT22;3694;48.732;9.248;2023-01-13T08:42:50;9.50;99.90
7307;DHT22;3694;48.732;9.248;2023-01-13T08:45:18;9.30;99.90
7307;DHT22;3694;48.732;9.248;2023-01-13T08:47:43;9.20;99.90
7307;DHT22;3694;48.732;9.248;2023-01-13T08:50:09;9.10;99.90
7307;DHT22;3694;48.732;9.248;2023-01-13T08:52:35;9.00;99.90
7307;DHT22;3694;48.732;9.248;2023-01-13T08:55:00;9.00;99.90
7307;DHT22;3694;48.732;9.248;2023-01-13T08:57:26;9.00;99.90
7307;DHT22;3694;48.732;9.248;2023-01-13T08:59:51;9.10;99.90
7307;DHT22;3694;48.732;9.248;2023-01-13T09:02:19;9.10;99.90
7307;DHT22;3694;48.732;9.248;2023-01-13T09:04:45;9.30;99.90
7307;DHT22;3694;48.732;9.248;2023-01-13T09:07:11;9.30;99.90
7307;DHT22;3694;48.732;9.248;2023-01-13T09:09:37;9.40;99.90
7307;DHT22;3694;48.732;9.248;2023-01-13T09:12:03;9.30;99.90
7307;DHT22;3694;48.732;9.248;2023-01-13T09:14:48;9.30;99.90
7307;DHT22;3694;48.732;9.248;2023-01-13T09:17:14;9.10;99.90
7307;DHT22;3694;48.732;9.248;2023-01-13T09:19:40;9.00;99.90
7307;DHT22;3694;48.732;9.248;2023-01-13T09:22:06;8.80;99.90
7307;DHT22;3694;48.732;9.248;2023-01-13T09:24:31;8.70;99.90
7307;DHT22;3694;48.732;9.248;2023-01-13T09:26:57;8.60;99.90
7307;DHT22;3694;48.732;9.248;2023-01-13T09:29:23;8.50;99.90
7307;DHT22;3694;48.732;9.248;2023-01-13T09:31:48;8.40;99.90
7307;DHT22;3694;48.732;9.248;2023-01-13T09:34:16;8.40;99.90
7307;DHT22;3694;48.732;9.248;2023-01-13T09:37:01;8.30;99.90
7307;DHT22;3694;48.732;9.248;2023-01-13T09:39:26;8.30;99.90
7307;DHT22;3694;48.732;9.248;2023-01-13T09:41:59;8.20;99.90
7307;DHT22;3694;48.732;9.248;2023-01-13T09:45:20;8.10;99.90
7307;DHT22;3694;48.732;9.248;2023-01-13T09:48:00;8.20;99.90
7307;DHT22;3694;48.732;9.248;2023-01-13T09:53:16;8.40;99.90
7307;DHT22;3694;48.732;9.248;2023-01-13T09:55:43;8.40;99.90
7307;DHT22;3694;48.732;9.248;2023-01-13T09:58:12;8.40;99.90
7307;DHT22;3694;48.732;9.248;2023-01-13T10:03:29;8.40;99.90
7307;DHT22;3694;48.732;9.248;2023-01-13T10:06:16;8.40;99.90
7307;DHT22;3694;48.732;9.248;2023-01-13T10:08:43;8.30;99.90
7307;DHT22;3694;48.732;9.248;2023-01-13T10:11:19;8.20;99.90
7307;DHT22;3694;48.732;9.248;2023-01-13T10:14:16;8.10;99.90
7307;DHT22;3694;48.732;9.248;2023-01-13T10:17:04;8.10;99.90
7307;DHT22;3694;48.732;9.248;2023-01-13T10:19:37;8.00;99.90
7307;DHT22;3694;48.732;9.248;2023-01-13T10:22:17;8.00;99.90
7307;DHT22;3694;48.732;9.248;2023-01-13T10:27:28;8.00;99.90
7307;DHT22;3694;48.732;9.248;2023-01-13T10:29:55;7.90;99.90
7307;DHT22;3694;48.732;9.248;2023-01-13T10:32:20;8.00;99.90
7307;DHT22;3694;48.732;9.248;2023-01-13T10:34:49;8.20;99.90
7307;DHT22;3694;48.732;9.248;2023-01-13T10:37:23;8.40;99.90
7307;DHT22;3694;48.732;9.248;2023-01-13T10:39:53;8.70;99.90
7307;DHT22;3694;48.732;9.248;2023-01-13T10:42:21;8.80;99.90
7307;DHT22;3694;48.732;9.248;2023-01-13T10:44:56;8.90;99.90
7307;DHT22;3694;48.732;9.248;2023-01-13T10:47:30;9.00;99.90
7307;DHT22;3694;48.732;9.248;2023-01-13T10:50:01;9.00;99.90
7307;DHT22;3694;48.732;9.248;2023-01-13T10:52:29;9.10;99.90
7307;DHT22;3694;48.732;9.248;2023-01-13T10:54:55;9.10;99.90
7307;DHT22;3694;48.732;9.248;2023-01-13T10:57:26;9.10;99.90
7307;DHT22;3694;48.732;9.248;2023-01-13T10:59:52;9.00;99.90
7307;DHT22;3694;48.732;9.248;2023-01-13T11:02:30;8.80;99.90
7307;DHT22;3694;48.732;9.248;2023-01-13T11:05:00;8.60;99.90
7307;DHT22;3694;48.732;9.248;2023-01-13T11:12:56;7.80;99.90
7307;DHT22;3694;48.732;9.248;2023-01-13T11:15:30;7.70;99.90
7307;DHT22;3694;48.732;9.248;2023-01-13T11:18:02;7.40;99.90
7307;DHT22;3694;48.732;9.248;2023-01-13T11:20:35;7.40;99.90
7307;DHT22;3694;48.732;9.248;2023-01-13T11:23:21;7.20;99.90
7307;DHT22;3694;48.732;9.248;2023-01-13T11:25:56;7.20;99.90
7307;DHT22;3694;48.732;9.248;2023-01-13T11:29:01;7.20;99.90
7307;DHT22;3694;48.732;9.248;2023-01-13T11:31:40;7.20;99.90
7307;DHT22;3694;48.732;9.248;2023-01-13T11:34:17;7.20;99.90
7307;DHT22;3694;48.732;9.248;2023-01-13T11:36:51;7.10;99.90
7307;DHT22;3694;48.732;9.248;2023-01-13T11:39:41;7.20;99.90
7307;DHT22;3694;48.732;9.248;2023-01-13T11:45:06;7.30;99.90
7307;DHT22;3694;48.732;9.248;2023-01-13T11:47:35;7.20;99.90
7307;DHT22;3694;48.732;9.248;2023-01-13T11:50:02;7.00;99.90
7307;DHT22;3694;48.732;9.248;2023-01-13T11:58:22;6.90;99.90
7307;DHT22;3694;48.732;9.248;2023-01-13T12:01:15;6.90;99.90
7307;DHT22;3694;48.732;9.248;2023-01-13T12:03:52;6.90;99.90
7307;DHT22;3694;48.732;9.248;2023-01-13T12:06:33;7.00;99.90
7307;DHT22;3694;48.732;9.248;2023-01-13T12:09:11;7.00;99.90
7307;DHT22;3694;48.732;9.248;2023-01-13T12:20:57;6.90;99.90
7307;DHT22;3694;48.732;9.248;2023-01-13T12:23:31;6.90;99.90
7307;DHT22;3694;48.732;9.248;2023-01-13T12:26:08;7.10;99.90
7307;DHT22;3694;48.732;9.248;2023-01-13T12:31:25;7.40;99.90
7307;DHT22;3694;48.732;9.248;2023-01-13T12:34:32;7.40;99.90
7307;DHT22;3694;48.732;9.248;2023-01-13T12:37:41;7.30;99.90
7307;DHT22;3694;48.732;9.248;2023-01-13T12:43:18;7.50;99.90
7307;DHT22;3694;48.732;9.248;2023-01-13T12:53:51;8.50;99.90
7307;DHT22;3694;48.732;9.248;2023-01-13T12:56:42;8.50;99.90
7307;DHT22;3694;48.732;9.248;2023-01-13T13:04:49;8.30;97.90
7307;DHT22;3694;48.732;9.248;2023-01-13T13:07:39;8.20;98.20
7307;DHT22;3694;48.732;9.248;2023-01-13T13:10:15;8.10;97.50
7307;DHT22;3694;48.732;9.248;2023-01-13T13:15:32;8.00;97.40
7307;DHT22;3694;48.732;9.248;2023-01-13T13:20:56;8.10;97.00
7307;DHT22;3694;48.732;9.248;2023-01-13T13:29:27;8.10;97.00
7307;DHT22;3694;48.732;9.248;2023-01-13T13:32:09;8.10;96.70
7307;DHT22;3694;48.732;9.248;2023-01-13T13:39:52;8.10;96.80
7307;DHT22;3694;48.732;9.248;2023-01-13T13:42:43;8.20;96.70
7307;DHT22;3694;48.732;9.248;2023-01-13T13:45:31;8.10;96.20
7307;DHT22;3694;48.732;9.248;2023-01-13T13:50:54;8.10;96.40
7307;DHT22;3694;48.732;9.248;2023-01-13T13:53:25;8.10;96.60
7307;DHT22;3694;48.732;9.248;2023-01-13T13:55:57;8.20;96.60
7307;DHT22;3694;48.732;9.248;2023-01-13T13:58:28;8.30;96.50
7307;DHT22;3694;48.732;9.248;2023-01-13T14:00:56;8.30;96.50
7307;DHT22;3694;48.732;9.248;2023-01-13T14:03:33;8.30;96.40
7307;DHT22;3694;48.732;9.248;2023-01-13T14:06:01;8.40;96.60
7307;DHT22;3694;48.732;9.248;2023-01-13T14:08:31;8.40;96.50
7307;DHT22;3694;48.732;9.248;2023-01-13T14:10:57;8.30;96.50
7307;DHT22;3694;48.732;9.248;2023-01-13T14:13:25;8.30;96.70
7307;DHT22;3694;48.732;9.248;2023-01-13T14:16:02;8.50;97.20
7307;DHT22;3694;48.732;9.248;2023-01-13T14:18:31;8.20;97.40
7307;DHT22;3694;48.732;9.248;2023-01-13T14:21:18;8.10;97.70
7307;DHT22;3694;48.732;9.248;2023-01-13T14:24:03;7.80;98.70
7307;DHT22;3694;48.732;9.248;2023-01-13T14:26:38;7.60;99.70
7307;DHT22;3694;48.732;9.248;2023-01-13T14:29:04;7.50;99.90
7307;DHT22;3694;48.732;9.248;2023-01-13T14:31:30;7.20;99.90
7307;DHT22;3694;48.732;9.248;2023-01-13T14:33:58;7.10;99.90
7307;DHT22;3694;48.732;9.248;2023-01-13T14:36:35;6.90;99.90
7307;DHT22;3694;48.732;9.248;2023-01-13T14:41:38;6.70;99.90
7307;DHT22;3694;48.732;9.248;2023-01-13T14:46:53;6.40;99.90
7307;DHT22;3694;48.732;9.248;2023-01-13T14:49:22;6.30;99.90
7307;DHT22;3694;48.732;9.248;2023-01-13T14:51:49;6.20;99.90
7307;DHT22;3694;48.732;9.248;2023-01-13T14:57:25;6.00;99.90
7307;DHT22;3694;48.732;9.248;2023-01-13T15:08:03;5.80;99.90
7307;DHT22;3694;48.732;9.248;2023-01-13T15:10:55;5.80;99.90
7307;DHT22;3694;48.732;9.248;2023-01-13T15:15:57;5.90;99.90
7307;DHT22;3694;48.732;9.248;2023-01-13T15:18:23;5.90;99.90
7307;DHT22;3694;48.732;9.248;2023-01-13T15:20:48;5.80;99.90
7307;DHT22;3694;48.732;9.248;2023-01-13T15:23:16;5.30;99.90
7307;DHT22;3694;48.732;9.248;2023-01-13T15:25:42;5.50;99.90
7307;DHT22;3694;48.732;9.248;2023-01-13T15:28:27;5.40;99.90
7307;DHT22;3694;48.732;9.248;2023-01-13T15:30:54;5.30;99.90
7307;DHT22;3694;48.732;9.248;2023-01-13T15:33:21;5.30;99.90
7307;DHT22;3694;48.732;9.248;2023-01-13T15:35:51;5.20;99.90
7307;DHT22;3694;48.732;9.248;2023-01-13T15:38:19;5.10;99.90
7307;DHT22;3694;48.732;9.248;2023-01-13T15:40:46;5.20;99.90
7307;DHT22;3694;48.732;9.248;2023-01-13T15:43:17;5.20;99.90
7307;DHT22;3694;48.732;9.248;2023-01-13T15:46:04;5.20;99.90
7307;DHT22;3694;48.732;9.248;2023-01-13T15:48:49;5.00;99.90
7307;DHT22;3694;48.732;9.248;2023-01-13T15:51:14;5.10;99.90
7307;DHT22;3694;48.732;9.248;2023-01-13T15:53:40;5.00;99.90
7307;DHT22;3694;48.732;9.248;2023-01-13T15:56:19;5.10;99.90
7307;DHT22;3694;48.732;9.248;2023-01-13T15:58:45;5.00;99.90
7307;DHT22;3694;48.732;9.248;2023-01-13T16:01:11;5.00;99.90
7307;DHT22;3694;48.732;9.248;2023-01-13T16:03:37;4.90;99.90
7307;DHT22;3694;48.732;9.248;2023-01-13T16:06:10;4.90;99.90
7307;DHT22;3694;48.732;9.248;2023-01-13T16:08:37;4.80;99.90
7307;DHT22;3694;48.732;9.248;2023-01-13T16:11:02;4.70;99.90
7307;DHT22;3694;48.732;9.248;2023-01-13T16:13:28;4.70;99.90
7307;DHT22;3694;48.732;9.248;2023-01-13T16:15:53;4.80;99.90
7307;DHT22;3694;48.732;9.248;2023-01-13T16:18:21;4.60;99.90
7307;DHT22;3694;48.732;9.248;2023-01-13T16:20:50;4.50;99.90
7307;DHT22;3694;48.732;9.248;2023-01-13T16:23:18;4.50;99.90
7307;DHT22;3694;48.732;9.248;2023-01-13T16:25:44;4.40;99.90
7307;DHT22;3694;48.732;9.248;2023-01-13T16:28:23;4.40;99.90
7307;DHT22;3694;48.732;9.248;2023-01-13T16:30:49;4.40;99.90
7307;DHT22;3694;48.732;9.248;2023-01-13T16:33:15;4.40;99.90
7307;DHT22;3694;48.732;9.248;2023-01-13T16:35:41;4.30;99.90
7307;DHT22;3694;48.732;9.248;2023-01-13T16:38:17;4.20;99.90
7307;DHT22;3694;48.732;9.248;2023-01-13T16:40:43;4.00;99.90
7307;DHT22;3694;48.732;9.248;2023-01-13T16:43:12;3.90;99.90
7307;DHT22;3694;48.732;9.248;2023-01-13T16:45:37;3.80;99.90
7307;DHT22;3694;48.732;9.248;2023-01-13T16:48:03;3.70;99.90
7307;DHT22;3694;48.732;9.248;2023-01-13T16:50:33;3.70;99.90
7307;DHT22;3694;48.732;9.248;2023-01-13T16:52:59;3.70;99.90
7307;DHT22;3694;48.732;9.248;2023-01-13T16:55:25;3.50;99.90
7307;DHT22;3694;48.732;9.248;2023-01-13T16:57:52;3.40;99.90
7307;DHT22;3694;48.732;9.248;2023-01-13T17:00:18;3.20;99.90
7307;DHT22;3694;48.732;9.248;2023-01-13T17:02:43;3.00;99.90
7307;DHT22;3694;48.732;9.248;2023-01-13T17:05:11;2.90;99.90
7307;DHT22;3694;48.732;9.248;2023-01-13T17:07:36;3.00;99.90
7307;DHT22;3694;48.732;9.248;2023-01-13T17:10:03;3.00;99.90
7307;DHT22;3694;48.732;9.248;2023-01-13T17:12:29;3.00;99.90
7307;DHT22;3694;48.732;9.248;2023-01-13T17:14:54;3.10;99.90
7307;DHT22;3694;48.732;9.248;2023-01-13T17:17:22;3.10;99.90
7307;DHT22;3694;48.732;9.248;2023-01-13T17:19:49;3.30;99.90
7307;DHT22;3694;48.732;9.248;2023-01-13T17:22:14;3.50;99.90
7307;DHT22;3694;48.732;9.248;2023-01-13T17:24:41;3.80;99.90
7307;DHT22;3694;48.732;9.248;2023-01-13T17:27:06;4.10;99.90
7307;DHT22;3694;48.732;9.248;2023-01-13T17:29:32;4.30;99.90
7307;DHT22;3694;48.732;9.248;2023-01-13T17:31:59;4.50;99.90
7307;DHT22;3694;48.732;9.248;2023-01-13T17:34:25;4.70;99.90
7307;DHT22;3694;48.732;9.248;2023-01-13T17:36:51;5.00;99.90
7307;DHT22;3694;48.732;9.248;2023-01-13T17:39:22;5.10;99.90
7307;DHT22;3694;48.732;9.248;2023-01-13T17:41:48;5.30;99.90
7307;DHT22;3694;48.732;9.248;2023-01-13T17:44:16;5.30;99.90
7307;DHT22;3694;48.732;9.248;2023-01-13T17:46:42;5.40;99.90
7307;DHT22;3694;48.732;9.248;2023-01-13T17:49:13;5.50;99.90
7307;DHT22;3694;48.732;9.248;2023-01-13T17:51:38;5.50;99.90
7307;DHT22;3694;48.732;9.248;2023-01-13T17:54:04;5.50;99.90
7307;DHT22;3694;48.732;9.248;2023-01-13T17:56:29;5.40;99.90
7307;DHT22;3694;48.732;9.248;2023-01-13T17:58:55;5.50;99.90
7307;DHT22;3694;48.732;9.248;2023-01-13T18:01:22;5.50;99.90
7307;DHT22;3694;48.732;9.248;2023-01-13T18:03:48;5.50;99.90
7307;DHT22;3694;48.732;9.248;2023-01-13T18:06:20;5.50;99.90
7307;DHT22;3694;48.732;9.248;2023-01-13T18:08:47;5.50;99.90
7307;DHT22;3694;48.732;9.248;2023-01-13T18:11:13;5.50;99.90
7307;DHT22;3694;48.732;9.248;2023-01-13T18:13:39;5.60;99.90
7307;DHT22;3694;48.732;9.248;2023-01-13T18:16:08;5.60;99.90
7307;DHT22;3694;48.732;9.248;2023-01-13T18:18:38;5.60;99.90
7307;DHT22;3694;48.732;9.248;2023-01-13T18:21:05;5.70;99.90
7307;DHT22;3694;48.732;9.248;2023-01-13T18:23:49;5.60;99.90
7307;DHT22;3694;48.732;9.248;2023-01-13T18:26:33;5.60;99.90
7307;DHT22;3694;48.732;9.248;2023-01-13T18:29:17;5.50;99.90